createdAt,value
2023-05-22T00:02:26.213Z,101049.00
2023-05-22T00:07:27.552Z,101045.20
2023-05-22T00:12:27.674Z,101043.20
2023-05-22T00:17:26.909Z,101039.40
2023-05-22T00:22:28.628Z,101034.60
2023-05-22T00:27:28.241Z,101031.20
2023-05-22T00:32:28.506Z,101031.60
2023-05-22T00:37:27.566Z,101030.80
2023-05-22T00:42:27.589Z,101033.80
2023-05-22T00:47:27.602Z,101031.80
2023-05-22T00:52:27.031Z,101029.60
2023-05-22T00:57:27.619Z,101031.40
2023-05-22T01:02:29.185Z,101032.60
2023-05-22T01:07:30.582Z,101032.80
2023-05-22T01:12:44.693Z,101029.20
2023-05-22T01:17:53.950Z,101027.80
2023-05-22T01:23:34.593Z,101020.40
2023-05-22T01:28:53.362Z,101024.00
2023-05-22T01:33:56.534Z,101021.00
2023-05-22T01:38:59.111Z,101029.80
2023-05-22T01:43:59.505Z,101024.60
2023-05-22T01:48:58.703Z,101024.20
2023-05-22T01:54:09.552Z,101029.60
2023-05-22T01:59:22.563Z,101028.80
2023-05-22T02:04:26.040Z,101028.60
2023-05-22T02:09:28.616Z,101026.60
2023-05-22T02:14:28.320Z,101031.00
2023-05-22T02:19:28.283Z,101032.20
2023-05-22T02:24:28.011Z,101034.20
2023-05-22T02:29:27.563Z,101023.40
2023-05-22T02:34:27.829Z,101028.80
2023-05-22T02:39:27.241Z,101029.40
2023-05-22T02:44:27.257Z,101019.40
2023-05-22T02:49:28.279Z,101023.00
2023-05-22T02:54:27.631Z,101021.00
2023-05-22T02:59:27.649Z,101014.20
2023-05-22T03:04:29.859Z,101006.80
2023-05-22T03:09:31.138Z,101006.80
2023-05-22T03:14:30.475Z,101002.40
2023-05-22T03:19:30.679Z,101005.60
2023-05-22T03:24:29.768Z,101011.40
2023-05-22T03:29:28.840Z,101011.80
2023-05-22T03:34:30.216Z,101004.80
2023-05-22T03:39:29.714Z,101009.80
2023-05-22T03:44:32.852Z,101009.60
2023-05-22T03:49:33.453Z,101011.20
2023-05-22T03:54:32.682Z,101017.20
2023-05-22T03:59:32.703Z,101025.40
2023-05-22T04:04:32.449Z,101020.60
2023-05-22T04:09:34.544Z,101019.60
2023-05-22T04:14:33.851Z,101015.00
2023-05-22T04:19:32.482Z,101011.80
2023-05-22T04:24:32.220Z,101013.20
2023-05-22T04:29:32.122Z,101001.80
2023-05-22T04:34:31.368Z,101003.20
2023-05-22T04:39:31.448Z,100999.80
2023-05-22T04:44:34.565Z,100999.40
2023-05-22T04:49:33.912Z,100992.60
2023-05-22T04:54:33.345Z,100997.20
2023-05-22T04:59:33.820Z,100998.80
2023-05-22T05:04:32.994Z,101006.60
2023-05-22T05:09:32.750Z,101006.60
2023-05-22T05:14:32.669Z,101007.40
2023-05-22T05:19:33.191Z,101007.00
2023-05-22T05:24:34.046Z,101008.40
2023-05-22T05:29:33.675Z,101014.20
2023-05-22T05:34:42.156Z,101018.40
2023-05-22T05:40:00.077Z,101009.60
2023-05-22T05:44:59.702Z,101011.00
2023-05-22T05:50:01.173Z,101007.60
2023-05-22T05:55:03.257Z,101005.80
2023-05-22T06:00:02.743Z,101004.60
2023-05-22T06:05:15.700Z,101006.20
2023-05-22T06:10:17.184Z,101000.60
2023-05-22T06:15:31.689Z,101001.00
2023-05-22T06:20:31.117Z,100991.80
2023-05-22T06:25:31.484Z,100991.00
2023-05-22T06:30:39.580Z,100987.00
2023-05-22T06:35:41.106Z,100985.40
2023-05-22T06:40:40.667Z,100983.60
2023-05-22T06:45:52.993Z,100981.80
2023-05-22T06:50:55.109Z,100980.80
2023-05-22T06:55:54.905Z,100977.00
2023-05-22T07:01:03.007Z,100976.40
2023-05-22T07:06:08.999Z,100977.40
2023-05-22T07:11:08.888Z,100975.80
2023-05-22T07:16:09.120Z,100972.80
2023-05-22T07:21:09.091Z,100964.40
2023-05-22T07:26:10.097Z,100963.60
2023-05-22T07:31:13.717Z,100959.40
2023-05-22T07:36:13.614Z,100965.60
2023-05-22T07:41:14.951Z,100954.20
2023-05-22T07:46:15.396Z,100952.00
2023-05-22T07:51:23.634Z,100952.80
2023-05-22T07:56:27.848Z,100947.80
2023-05-22T08:01:27.191Z,100942.20
2023-05-22T08:06:27.074Z,100938.60
2023-05-22T08:11:26.777Z,100940.20
2023-05-22T08:16:26.293Z,100941.00
2023-05-22T08:21:26.250Z,100943.60
2023-05-22T08:26:26.501Z,100939.00
2023-05-22T08:31:28.005Z,100929.40
2023-05-22T08:36:27.521Z,100936.60
2023-05-22T08:41:26.385Z,100937.00
2023-05-22T08:46:28.496Z,100940.60
2023-05-22T08:51:34.576Z,100929.20
2023-05-22T08:56:39.803Z,100936.80
2023-05-22T09:01:45.988Z,100930.00
2023-05-22T09:06:48.230Z,100930.40
2023-05-22T09:11:47.444Z,100931.20
2023-05-22T09:16:55.060Z,100929.00
2023-05-22T09:21:55.658Z,100924.00
2023-05-22T09:26:56.029Z,100918.60
2023-05-22T09:31:55.833Z,100915.60
2023-05-22T09:37:02.717Z,100915.00
2023-05-22T09:42:06.540Z,100910.00
2023-05-22T09:47:07.699Z,100908.80
2023-05-22T09:52:12.789Z,100902.20
2023-05-22T09:57:19.467Z,100896.80
2023-05-22T10:02:19.742Z,100894.00
2023-05-22T10:07:23.219Z,100899.00
2023-05-22T10:12:25.098Z,100906.40
2023-05-22T10:17:25.380Z,100901.00
2023-05-22T10:22:27.056Z,100905.80
2023-05-22T10:27:26.207Z,100896.20
2023-05-22T10:32:37.080Z,100896.00
2023-05-22T10:37:47.365Z,100896.00
2023-05-22T10:42:47.122Z,100890.80
2023-05-22T10:47:48.456Z,100892.80
2023-05-22T10:52:48.909Z,100888.60
2023-05-22T10:57:48.458Z,100887.20
2023-05-22T11:02:50.071Z,100884.00
2023-05-22T11:07:53.421Z,100886.00
2023-05-22T11:13:12.736Z,100875.60
2023-05-22T11:18:16.940Z,100876.80
2023-05-22T11:23:19.591Z,100869.80
2023-05-22T11:28:19.543Z,100861.80
2023-05-22T11:33:19.311Z,100858.20
2023-05-22T11:38:20.965Z,100858.60
2023-05-22T11:43:34.158Z,100859.20
2023-05-22T11:48:33.750Z,100856.20
2023-05-22T11:53:36.098Z,100857.20
2023-05-22T11:58:36.254Z,100854.80
2023-05-22T12:03:36.737Z,100850.40
2023-05-22T12:08:37.023Z,100849.40
2023-05-22T12:13:36.531Z,100843.40
2023-05-22T12:18:42.725Z,100838.40
2023-05-22T12:23:53.716Z,100834.80
2023-05-22T12:28:56.224Z,100826.00
2023-05-22T12:33:59.083Z,100831.40
2023-05-22T12:39:01.080Z,100822.60
2023-05-22T12:44:02.224Z,100821.20
2023-05-22T12:49:02.040Z,100818.40
2023-05-22T12:54:01.975Z,100814.00
2023-05-22T12:59:01.879Z,100812.40
2023-05-22T13:04:01.468Z,100804.60
2023-05-22T13:09:00.805Z,100804.40
2023-05-22T13:14:00.230Z,100813.80
2023-05-22T13:18:59.601Z,100809.00
2023-05-22T13:23:59.757Z,100806.00
2023-05-22T13:28:58.995Z,100805.00
2023-05-22T13:33:58.889Z,100797.20
2023-05-22T13:38:59.013Z,100796.40
2023-05-22T13:43:58.485Z,100786.20
2023-05-22T13:48:57.813Z,100785.40
2023-05-22T13:53:57.681Z,100781.60
2023-05-22T13:58:57.136Z,100773.00
2023-05-22T14:03:55.920Z,100772.00
2023-05-22T14:08:55.605Z,100772.20
2023-05-22T14:13:55.523Z,100772.20
2023-05-22T14:18:54.919Z,100763.40
2023-05-22T14:23:54.072Z,100765.60
2023-05-22T14:28:54.643Z,100756.20
2023-05-22T14:33:54.002Z,100756.20
2023-05-22T14:38:56.858Z,100753.80
2023-05-22T14:43:56.071Z,100745.60
2023-05-22T14:48:55.224Z,100743.20
2023-05-22T14:53:55.093Z,100742.20
2023-05-22T14:58:54.432Z,100740.60
2023-05-22T15:03:53.327Z,100741.80
2023-05-22T15:08:52.410Z,100740.80
2023-05-22T15:13:54.460Z,100750.40
2023-05-22T15:18:55.079Z,100748.40
2023-05-22T15:23:54.074Z,100751.80
2023-05-22T15:28:52.942Z,100751.40
2023-05-22T15:33:51.853Z,100749.00
2023-05-22T15:38:51.397Z,100749.00
2023-05-22T15:43:52.270Z,100742.60
2023-05-22T15:48:51.193Z,100747.20
2023-05-22T15:53:51.081Z,100730.80
2023-05-22T15:58:50.237Z,100720.60
2023-05-22T16:03:49.976Z,100718.00
2023-05-22T16:08:49.071Z,100718.40
2023-05-22T16:13:49.205Z,100714.80
2023-05-22T16:18:48.608Z,100715.20
2023-05-22T16:23:48.479Z,100713.40
2023-05-22T16:28:48.033Z,100711.20
2023-05-22T16:33:46.959Z,100708.80
2023-05-22T16:38:46.738Z,100706.20
2023-05-22T16:43:46.288Z,100711.00
2023-05-22T16:48:46.293Z,100713.00
2023-05-22T16:53:46.940Z,100710.20
2023-05-22T16:58:46.212Z,100712.60
2023-05-22T17:03:45.284Z,100713.20
2023-05-22T17:08:44.123Z,100716.00
2023-05-22T17:13:43.233Z,100716.00
2023-05-22T17:18:42.299Z,100716.00
2023-05-22T17:23:41.597Z,100714.40
2023-05-22T17:28:41.069Z,100711.80
2023-05-22T17:33:40.236Z,100714.60
2023-05-22T17:38:39.603Z,100711.00
2023-05-22T17:43:39.715Z,100711.80
2023-05-22T17:48:41.211Z,100710.40
2023-05-22T17:53:40.425Z,100705.60
2023-05-22T17:58:40.097Z,100698.60
2023-05-22T18:03:38.805Z,100694.20
2023-05-22T18:08:40.084Z,100688.80
2023-05-22T18:13:39.376Z,100687.40
2023-05-22T18:18:38.569Z,100684.60
2023-05-22T18:23:40.900Z,100682.80
2023-05-22T18:28:39.580Z,100680.80
2023-05-22T18:33:39.988Z,100677.20
2023-05-22T18:38:39.854Z,100678.60
2023-05-22T18:43:39.180Z,100671.60
2023-05-22T18:48:38.358Z,100675.60
2023-05-22T18:53:37.284Z,100671.20
2023-05-22T18:58:41.295Z,100673.80
2023-05-22T19:03:41.716Z,100677.00
2023-05-22T19:08:41.501Z,100680.20
2023-05-22T19:13:41.448Z,100678.20
2023-05-22T19:18:40.832Z,100676.80
2023-05-22T19:23:44.860Z,100670.80
2023-05-22T19:28:43.900Z,100669.40
2023-05-22T19:33:43.568Z,100674.40
2023-05-22T19:38:46.215Z,100676.80
2023-05-22T19:43:47.462Z,100674.80
2023-05-22T19:48:48.238Z,100673.20
2023-05-22T19:53:48.633Z,100675.00
2023-05-22T19:58:48.506Z,100668.00
2023-05-22T20:03:48.210Z,100673.20
2023-05-22T20:08:49.190Z,100672.40
2023-05-22T20:13:49.734Z,100671.60
2023-05-22T20:18:57.929Z,100666.60
2023-05-22T20:23:58.686Z,100667.00
2023-05-22T20:29:02.436Z,100664.40
2023-05-22T20:34:04.398Z,100664.40
2023-05-22T20:39:06.491Z,100663.80
2023-05-22T20:44:08.322Z,100659.20
2023-05-22T20:49:07.940Z,100654.80
2023-05-22T20:54:08.353Z,100657.00
2023-05-22T20:59:08.385Z,100651.00
2023-05-22T21:04:08.051Z,100651.20
2023-05-22T21:09:07.524Z,100650.40
2023-05-22T21:14:07.563Z,100652.40
2023-05-22T21:19:09.661Z,100651.80
2023-05-22T21:24:11.135Z,100652.00
2023-05-22T21:29:10.262Z,100644.00
2023-05-22T21:34:10.006Z,100640.20
2023-05-22T21:39:09.368Z,100640.60
2023-05-22T21:44:10.243Z,100635.40
2023-05-22T21:49:09.911Z,100640.00
2023-05-22T21:54:09.216Z,100645.60
2023-05-22T21:59:08.792Z,100649.00
2023-05-22T22:04:08.391Z,100640.00
2023-05-22T22:09:07.470Z,100640.00
2023-05-22T22:14:07.471Z,100648.40
2023-05-22T22:19:07.590Z,100643.80
2023-05-22T22:24:06.794Z,100636.60
2023-05-22T22:29:06.149Z,100634.40
2023-05-22T22:34:06.711Z,100632.00
2023-05-22T22:39:06.257Z,100632.80
2023-05-22T22:44:05.569Z,100632.20
2023-05-22T22:49:05.082Z,100634.60
2023-05-22T22:54:04.901Z,100632.20
2023-05-22T22:59:04.733Z,100628.80
2023-05-22T23:04:03.580Z,100625.80
2023-05-22T23:09:03.856Z,100621.80
2023-05-22T23:14:04.357Z,100607.80
2023-05-22T23:19:03.761Z,100601.80
2023-05-22T23:24:05.596Z,100596.80
2023-05-22T23:29:06.729Z,100598.40
2023-05-22T23:34:06.594Z,100590.20
2023-05-22T23:39:15.406Z,100587.00
2023-05-22T23:44:14.951Z,100582.40
2023-05-22T23:49:15.219Z,100577.40
2023-05-22T23:54:14.565Z,100578.00
2023-05-22T23:59:13.956Z,100578.00
